Time,TemperatureF,DewpointF,PressureIn,WindDirection,WindDirectionDegrees,WindSpeedMPH,WindSpeedGustMPH,Humidity,HourlyPrecipIn,Conditions,Clouds,dailyrainin,SoftwareType,DateUTC
2013-11-05 00:04:00,32.9,19.8,30.03,ESE,113,4.0,8.0,58,0.00,,,0.00,meteohub,2013-11-05 08:04:00,
2013-11-05 00:09:00,32.5,19.4,30.03,ESE,113,3.0,7.0,58,0.00,,,0.00,meteohub,2013-11-05 08:09:00,
2013-11-05 00:14:00,32.2,19.4,30.02,SE,135,7.0,7.0,59,0.00,,,0.00,meteohub,2013-11-05 08:14:00,
2013-11-05 00:19:00,32.5,19.4,30.03,SE,135,8.0,8.0,58,0.00,,,0.00,meteohub,2013-11-05 08:19:00,
2013-11-05 00:24:00,32.9,19.4,30.03,SE,135,5.0,8.0,57,0.00,,,0.00,meteohub,2013-11-05 08:24:00,
2013-11-05 00:29:00,32.9,18.9,30.03,ESE,113,4.0,8.0,56,0.00,,,0.00,meteohub,2013-11-05 08:29:00,
2013-11-05 00:34:00,32.0,18.5,30.03,SE,135,4.0,8.0,57,0.00,,,0.00,meteohub,2013-11-05 08:34:00,
2013-11-05 00:39:00,32.0,18.5,30.04,ESE,113,3.0,7.0,57,0.00,,,0.00,meteohub,2013-11-05 08:39:00,
2013-11-05 00:44:00,31.3,18.1,30.04,ESE,113,2.0,5.0,58,0.00,,,0.00,meteohub,2013-11-05 08:44:00,
2013-11-05 00:50:00,30.0,17.8,30.04,East,90,2.0,5.0,60,0.00,,,0.00,meteohub,2013-11-05 08:50:00,
2013-11-05 00:55:00,29.3,17.6,30.04,South,180,1.0,4.0,61,0.00,,,0.00,meteohub,2013-11-05 08:55:00,
2013-11-05 01:00:00,28.9,17.6,30.04,South,180,0.0,4.0,62,0.00,,,0.00,meteohub,2013-11-05 09:00:00,
2013-11-05 01:05:00,28.6,17.2,30.04,South,180,1.0,4.0,62,0.00,,,0.00,meteohub,2013-11-05 09:05:00,
2013-11-05 01:10:00,28.2,17.2,30.04,South,180,1.0,2.0,63,0.00,,,0.00,meteohub,2013-11-05 09:10:00,
2013-11-05 01:15:00,27.9,16.9,30.04,South,180,1.0,2.0,63,0.00,,,0.00,meteohub,2013-11-05 09:15:00,
2013-11-05 01:20:00,27.7,17.1,30.04,South,180,3.0,3.0,64,0.00,,,0.00,meteohub,2013-11-05 09:20:00,
2013-11-05 01:25:00,27.3,16.7,30.04,South,180,2.0,2.0,64,0.00,,,0.00,meteohub,2013-11-05 09:25:00,
2013-11-05 01:30:00,27.0,16.7,30.04,South,180,1.0,3.0,65,0.00,,,0.00,meteohub,2013-11-05 09:30:00,
2013-11-05 01:35:00,26.6,16.3,30.04,South,180,2.0,3.0,65,0.00,,,0.00,meteohub,2013-11-05 09:35:00,
2013-11-05 01:40:00,26.6,16.7,30.04,South,180,1.0,2.0,66,0.00,,,0.00,meteohub,2013-11-05 09:40:00,
2013-11-05 01:45:00,26.6,16.7,30.04,South,180,1.0,2.0,66,0.00,,,0.00,meteohub,2013-11-05 09:45:00,
2013-11-05 01:50:00,26.4,16.9,30.05,South,180,1.0,2.0,67,0.00,,,0.00,meteohub,2013-11-05 09:50:00,
2013-11-05 01:55:00,26.2,16.7,30.04,South,180,0.0,2.0,67,0.00,,,0.00,meteohub,2013-11-05 09:55:00,
2013-11-05 02:00:00,26.1,16.7,30.05,South,180,2.0,2.0,67,0.00,,,0.00,meteohub,2013-11-05 10:00:00,
2013-11-05 02:05:00,25.9,16.7,30.04,South,180,3.0,3.0,68,0.00,,,0.00,meteohub,2013-11-05 10:05:00,
2013-11-05 02:10:00,26.4,17.2,30.05,South,180,1.0,3.0,68,0.00,,,0.00,meteohub,2013-11-05 10:10:00,
2013-11-05 02:15:00,27.7,17.8,30.06,NE,45,2.0,9.0,66,0.00,,,0.00,meteohub,2013-11-05 10:15:00,
2013-11-05 02:20:00,28.4,17.8,30.05,South,180,3.0,9.0,64,0.00,,,0.00,meteohub,2013-11-05 10:20:00,
2013-11-05 02:25:00,28.4,17.4,30.05,NE,45,4.0,9.0,63,0.00,,,0.00,meteohub,2013-11-05 10:25:00,
2013-11-05 02:30:00,29.1,17.8,30.05,ESE,113,4.0,4.0,62,0.00,,,0.00,meteohub,2013-11-05 10:30:00,
2013-11-05 02:35:00,29.1,17.4,30.05,SE,135,2.0,4.0,61,0.00,,,0.00,meteohub,2013-11-05 10:35:00,
2013-11-05 02:40:00,28.4,17.1,30.06,South,180,1.0,4.0,62,0.00,,,0.00,meteohub,2013-11-05 10:40:00,
2013-11-05 02:45:00,28.2,17.2,30.06,South,180,1.0,4.0,63,0.00,,,0.00,meteohub,2013-11-05 10:45:00,
2013-11-05 02:50:00,27.7,17.1,30.06,South,180,2.0,4.0,64,0.00,,,0.00,meteohub,2013-11-05 10:50:00,
2013-11-05 02:55:00,27.3,16.7,30.06,South,180,2.0,3.0,64,0.00,,,0.00,meteohub,2013-11-05 10:55:00,
2013-11-05 03:01:00,27.1,16.9,30.07,South,180,3.0,3.0,65,0.00,,,0.00,meteohub,2013-11-05 11:01:00,
2013-11-05 03:06:00,27.1,16.5,30.07,South,180,2.0,3.0,64,0.00,,,0.00,meteohub,2013-11-05 11:06:00,
2013-11-05 03:11:00,27.3,16.3,30.07,South,180,1.0,3.0,63,0.00,,,0.00,meteohub,2013-11-05 11:11:00,
2013-11-05 03:16:00,27.7,16.3,30.07,South,180,4.0,5.0,62,0.00,,,0.00,meteohub,2013-11-05 11:16:00,
2013-11-05 03:21:00,28.4,16.3,30.08,SE,135,5.0,5.0,60,0.00,,,0.00,meteohub,2013-11-05 11:21:00,
2013-11-05 03:26:00,28.9,16.9,30.08,South,180,1.0,6.0,60,0.00,,,0.00,meteohub,2013-11-05 11:26:00,
2013-11-05 03:31:00,28.2,16.2,30.08,South,180,2.0,6.0,60,0.00,,,0.00,meteohub,2013-11-05 11:31:00,
2013-11-05 03:36:00,27.7,15.6,30.08,South,180,1.0,5.0,60,0.00,,,0.00,meteohub,2013-11-05 11:36:00,
2013-11-05 03:41:00,27.7,15.6,30.08,SE,135,4.0,4.0,60,0.00,,,0.00,meteohub,2013-11-05 11:41:00,
2013-11-05 03:46:00,27.7,15.3,30.08,SE,135,2.0,4.0,59,0.00,,,0.00,meteohub,2013-11-05 11:46:00,
2013-11-05 03:51:00,27.3,14.5,30.08,East,90,2.0,4.0,58,0.00,,,0.00,meteohub,2013-11-05 11:51:00,
2013-11-05 03:56:00,27.3,14.9,30.09,ESE,113,3.0,4.0,59,0.00,,,0.00,meteohub,2013-11-05 11:56:00,
2013-11-05 04:01:00,27.7,14.4,30.08,ESE,113,4.0,4.0,57,0.00,,,0.00,meteohub,2013-11-05 12:01:00,
2013-11-05 04:06:00,28.4,14.7,30.08,East,90,4.0,8.0,56,0.00,,,0.00,meteohub,2013-11-05 12:06:00,
2013-11-05 04:11:00,28.6,14.5,30.08,SE,135,5.0,8.0,55,0.00,,,0.00,meteohub,2013-11-05 12:11:00,
2013-11-05 04:16:00,29.3,14.7,30.08,SSE,158,4.0,8.0,54,0.00,,,0.00,meteohub,2013-11-05 12:16:00,
2013-11-05 04:21:00,29.7,15.1,30.09,South,180,2.0,8.0,54,0.00,,,0.00,meteohub,2013-11-05 12:21:00,
2013-11-05 04:26:00,29.5,14.0,30.09,East,90,4.0,8.0,52,0.00,,,0.00,meteohub,2013-11-05 12:26:00,
2013-11-05 04:31:00,28.9,14.0,30.09,SE,135,3.0,8.0,53,0.00,,,0.00,meteohub,2013-11-05 12:31:00,
2013-11-05 04:36:00,29.3,13.8,30.09,SE,135,4.0,5.0,52,0.00,,,0.00,meteohub,2013-11-05 12:36:00,
2013-11-05 04:41:00,28.8,14.2,30.09,South,180,2.0,5.0,54,0.00,,,0.00,meteohub,2013-11-05 12:41:00,
2013-11-05 04:46:00,27.9,13.8,30.08,South,180,2.0,4.0,55,0.00,,,0.00,meteohub,2013-11-05 12:46:00,
2013-11-05 04:51:00,27.7,13.6,30.08,ESE,113,2.0,5.0,55,0.00,,,0.00,meteohub,2013-11-05 12:51:00,
2013-11-05 04:56:00,28.0,13.5,30.08,South,180,4.0,5.0,54,0.00,,,0.00,meteohub,2013-11-05 12:56:00,
2013-11-05 05:01:00,28.8,13.8,30.08,SE,135,4.0,5.0,53,0.00,,,0.00,meteohub,2013-11-05 13:01:00,
2013-11-05 05:06:00,28.0,13.1,30.08,NE,45,3.0,5.0,53,0.00,,,0.00,meteohub,2013-11-05 13:06:00,
2013-11-05 05:11:00,27.3,12.9,30.08,SE,135,4.0,6.0,54,0.00,,,0.00,meteohub,2013-11-05 13:11:00,
2013-11-05 05:16:00,27.9,12.9,30.08,SE,135,7.0,7.0,53,0.00,,,0.00,meteohub,2013-11-05 13:16:00,
2013-11-05 05:21:00,28.6,12.7,30.08,SE,135,5.0,7.0,51,0.00,,,0.00,meteohub,2013-11-05 13:21:00,
2013-11-05 05:26:00,29.1,13.3,30.09,South,180,2.0,8.0,51,0.00,,,0.00,meteohub,2013-11-05 13:26:00,
2013-11-05 05:31:00,29.1,12.7,30.08,SE,135,4.0,8.0,50,0.00,,,0.00,meteohub,2013-11-05 13:31:00,
2013-11-05 05:36:00,28.9,12.6,30.09,East,90,5.0,8.0,50,0.00,,,0.00,meteohub,2013-11-05 13:36:00,
2013-11-05 05:41:00,28.9,12.6,30.09,SE,135,4.0,6.0,50,0.00,,,0.00,meteohub,2013-11-05 13:41:00,
2013-11-05 05:46:00,29.1,12.4,30.09,SE,135,7.0,7.0,49,0.00,,,0.00,meteohub,2013-11-05 13:46:00,
2013-11-05 05:51:00,29.1,11.8,30.09,SE,135,4.0,8.0,48,0.00,,,0.00,meteohub,2013-11-05 13:51:00,
2013-11-05 05:56:00,29.3,12.0,30.09,South,180,5.0,8.0,48,0.00,,,0.00,meteohub,2013-11-05 13:56:00,
2013-11-05 06:01:00,29.3,12.0,30.09,ESE,113,6.0,8.0,48,0.00,,,0.00,meteohub,2013-11-05 14:01:00,
2013-11-05 06:06:00,28.6,11.8,30.09,SE,135,3.0,8.0,49,0.00,,,0.00,meteohub,2013-11-05 14:06:00,
2013-11-05 06:11:00,28.4,11.7,30.10,SE,135,3.0,8.0,49,0.00,,,0.00,meteohub,2013-11-05 14:11:00,
2013-11-05 06:16:00,28.6,11.8,30.10,SE,135,6.0,8.0,49,0.00,,,0.00,meteohub,2013-11-05 14:16:00,
2013-11-05 06:21:00,28.6,11.8,30.10,SE,135,4.0,8.0,49,0.00,,,0.00,meteohub,2013-11-05 14:21:00,
2013-11-05 06:26:00,27.9,11.1,30.11,SE,135,3.0,7.0,49,0.00,,,0.00,meteohub,2013-11-05 14:26:00,
2013-11-05 06:31:00,27.5,11.3,30.11,SE,135,3.0,6.0,50,0.00,,,0.00,meteohub,2013-11-05 14:31:00,
2013-11-05 06:36:00,27.5,11.3,30.11,SE,135,4.0,5.0,50,0.00,,,0.00,meteohub,2013-11-05 14:36:00,
2013-11-05 06:41:00,27.7,11.8,30.11,SE,135,4.0,5.0,51,0.00,,,0.00,meteohub,2013-11-05 14:41:00,
2013-11-05 06:46:00,28.6,11.8,30.12,SE,135,4.0,6.0,49,0.00,,,0.00,meteohub,2013-11-05 14:46:00,
2013-11-05 06:51:00,29.7,11.8,30.12,SE,135,5.0,7.0,47,0.00,,,0.00,meteohub,2013-11-05 14:51:00,
2013-11-05 06:56:00,30.4,12.0,30.12,East,90,10.0,10.0,46,0.00,,,0.00,meteohub,2013-11-05 14:56:00,
2013-11-05 07:01:00,31.1,12.2,30.12,SSE,158,8.0,10.0,45,0.00,,,0.00,meteohub,2013-11-05 15:01:00,
2013-11-05 07:06:00,31.6,12.2,30.12,NE,45,8.0,10.0,44,0.00,,,0.00,meteohub,2013-11-05 15:06:00,
2013-11-05 07:11:00,32.2,11.7,30.13,SE,135,6.0,10.0,42,0.00,,,0.00,meteohub,2013-11-05 15:11:00,
2013-11-05 07:16:00,32.5,12.6,30.13,SE,135,5.0,9.0,43,0.00,,,0.00,meteohub,2013-11-05 15:16:00,
2013-11-05 07:21:00,33.1,12.6,30.13,SE,135,5.0,9.0,42,0.00,,,0.00,meteohub,2013-11-05 15:21:00,
2013-11-05 07:26:00,33.6,11.8,30.13,SE,135,7.0,9.0,40,0.00,,,0.00,meteohub,2013-11-05 15:26:00,
2013-11-05 07:31:00,33.8,12.0,30.13,East,90,7.0,7.0,40,0.00,,,0.00,meteohub,2013-11-05 15:31:00,
2013-11-05 07:36:00,34.0,12.2,30.13,SE,135,4.0,8.0,40,0.00,,,0.00,meteohub,2013-11-05 15:36:00,
2013-11-05 07:41:00,34.5,11.5,30.13,East,90,10.0,10.0,38,0.00,,,0.00,meteohub,2013-11-05 15:41:00,
2013-11-05 07:46:00,34.7,10.4,30.14,SE,135,8.0,11.0,36,0.00,,,0.00,meteohub,2013-11-05 15:46:00,
2013-11-05 07:52:00,34.9,10.6,30.14,East,90,3.0,11.0,36,0.00,,,0.00,meteohub,2013-11-05 15:52:00,
2013-11-05 07:57:00,35.1,9.5,30.14,East,90,10.0,11.0,34,0.00,,,0.00,meteohub,2013-11-05 15:57:00,
2013-11-05 08:02:00,35.2,9.7,30.14,SE,135,11.0,11.0,34,0.00,,,0.00,meteohub,2013-11-05 16:02:00,
2013-11-05 08:07:00,35.2,9.7,30.14,North,0,9.0,11.0,34,0.00,,,0.00,meteohub,2013-11-05 16:07:00,
2013-11-05 08:12:00,35.2,9.7,30.14,NE,45,6.0,12.0,34,0.00,,,0.00,meteohub,2013-11-05 16:12:00,
2013-11-05 08:17:00,35.6,9.3,30.15,SE,135,8.0,12.0,33,0.00,,,0.00,meteohub,2013-11-05 16:17:00,
2013-11-05 08:22:00,35.6,8.6,30.14,ESE,113,5.0,13.0,32,0.00,,,0.00,meteohub,2013-11-05 16:22:00,
2013-11-05 08:27:00,35.8,8.8,30.15,East,90,7.0,13.0,32,0.00,,,0.00,meteohub,2013-11-05 16:27:00,
2013-11-05 08:32:00,35.8,8.8,30.15,East,90,6.0,13.0,32,0.00,,,0.00,meteohub,2013-11-05 16:32:00,
2013-11-05 08:37:00,35.8,8.1,30.14,East,90,10.0,11.0,31,0.00,,,0.00,meteohub,2013-11-05 16:37:00,
2013-11-05 08:42:00,36.1,8.4,30.16,SE,135,8.0,11.0,31,0.00,,,0.00,meteohub,2013-11-05 16:42:00,
2013-11-05 08:47:00,36.3,8.6,30.16,NE,45,9.0,11.0,31,0.00,,,0.00,meteohub,2013-11-05 16:47:00,
2013-11-05 08:52:00,36.1,8.4,30.16,SE,135,8.0,11.0,31,0.00,,,0.00,meteohub,2013-11-05 16:52:00,
2013-11-05 08:57:00,36.5,8.8,30.16,NE,45,11.0,11.0,31,0.00,,,0.00,meteohub,2013-11-05 16:57:00,
2013-11-05 09:02:00,36.5,8.1,30.16,SE,135,7.0,11.0,30,0.00,,,0.00,meteohub,2013-11-05 17:02:00,
2013-11-05 09:07:00,36.7,7.3,30.16,NE,45,8.0,11.0,29,0.00,,,0.00,meteohub,2013-11-05 17:07:00,
2013-11-05 09:12:00,36.7,7.3,30.16,SE,135,11.0,11.0,29,0.00,,,0.00,meteohub,2013-11-05 17:12:00,
2013-11-05 09:17:00,36.7,7.3,30.16,SE,135,11.0,12.0,29,0.00,,,0.00,meteohub,2013-11-05 17:17:00,
2013-11-05 09:22:00,36.7,7.3,30.17,ESE,113,10.0,13.0,29,0.00,,,0.00,meteohub,2013-11-05 17:22:00,
2013-11-05 09:27:00,36.7,5.9,30.16,East,90,8.0,15.0,27,0.00,,,0.00,meteohub,2013-11-05 17:27:00,
2013-11-05 09:32:00,37.6,7.3,30.16,NNE,23,8.0,15.0,28,0.00,,,0.00,meteohub,2013-11-05 17:32:00,
2013-11-05 09:37:00,38.1,5.4,30.16,ENE,68,8.0,15.0,25,0.00,,,0.00,meteohub,2013-11-05 17:37:00,
2013-11-05 09:42:00,37.8,5.9,30.16,North,0,9.0,15.0,26,0.00,,,0.00,meteohub,2013-11-05 17:42:00,
2013-11-05 09:47:00,38.1,6.3,30.16,NE,45,8.0,15.0,26,0.00,,,0.00,meteohub,2013-11-05 17:47:00,
2013-11-05 09:52:00,38.8,6.8,30.16,East,90,11.0,15.0,26,0.00,,,0.00,meteohub,2013-11-05 17:52:00,
2013-11-05 09:57:00,38.5,6.6,30.17,East,90,13.0,13.0,26,0.00,,,0.00,meteohub,2013-11-05 17:57:00,
2013-11-05 10:02:00,38.3,5.5,30.17,SE,135,11.0,15.0,25,0.00,,,0.00,meteohub,2013-11-05 18:02:00,
2013-11-05 10:07:00,37.9,6.1,30.17,South,180,6.0,15.0,26,0.00,,,0.00,meteohub,2013-11-05 18:07:00,
2013-11-05 10:12:00,37.9,5.2,30.17,East,90,15.0,15.0,25,0.00,,,0.00,meteohub,2013-11-05 18:12:00,
2013-11-05 10:17:00,37.8,5.0,30.17,SE,135,11.0,15.0,25,0.00,,,0.00,meteohub,2013-11-05 18:17:00,
2013-11-05 10:22:00,37.9,5.2,30.18,ENE,68,11.0,15.0,25,0.00,,,0.00,meteohub,2013-11-05 18:22:00,
2013-11-05 10:27:00,37.8,4.3,30.17,East,90,6.0,15.0,24,0.00,,,0.00,meteohub,2013-11-05 18:27:00,
2013-11-05 10:32:00,38.5,4.8,30.17,North,0,8.0,12.0,24,0.00,,,0.00,meteohub,2013-11-05 18:32:00,
2013-11-05 10:37:00,38.5,4.8,30.18,SE,135,6.0,12.0,24,0.00,,,0.00,meteohub,2013-11-05 18:37:00,
2013-11-05 10:42:00,38.8,6.1,30.17,East,90,8.0,12.0,25,0.00,,,0.00,meteohub,2013-11-05 18:42:00,
2013-11-05 10:47:00,39.0,4.3,30.17,NE,45,4.0,12.0,23,0.00,,,0.00,meteohub,2013-11-05 18:47:00,
2013-11-05 10:52:00,39.4,2.7,30.17,SE,135,9.0,12.0,21,0.00,,,0.00,meteohub,2013-11-05 18:52:00,
2013-11-05 10:57:00,39.9,5.2,30.17,SSE,158,11.0,12.0,23,0.00,,,0.00,meteohub,2013-11-05 18:57:00,
2013-11-05 11:02:00,40.1,4.3,30.17,East,90,5.0,14.0,22,0.00,,,0.00,meteohub,2013-11-05 19:02:00,
2013-11-05 11:07:00,39.9,4.1,30.17,NNE,23,7.0,14.0,22,0.00,,,0.00,meteohub,2013-11-05 19:07:00,
2013-11-05 11:12:00,39.6,4.8,30.17,NE,45,5.0,14.0,23,0.00,,,0.00,meteohub,2013-11-05 19:12:00,
2013-11-05 11:17:00,40.1,4.3,30.17,East,90,11.0,11.0,22,0.00,,,0.00,meteohub,2013-11-05 19:17:00,
2013-11-05 11:22:00,40.6,3.7,30.17,NE,45,6.0,11.0,21,0.00,,,0.00,meteohub,2013-11-05 19:22:00,
2013-11-05 11:27:00,41.0,0.7,30.16,East,90,8.0,11.0,18,0.00,,,0.00,meteohub,2013-11-05 19:27:00,
2013-11-05 11:32:00,40.8,1.8,30.16,South,180,4.0,11.0,19,0.00,,,0.00,meteohub,2013-11-05 19:32:00,
2013-11-05 11:37:00,40.8,-0.6,30.17,North,0,7.0,11.0,17,0.00,,,0.00,meteohub,2013-11-05 19:37:00,
2013-11-05 11:42:00,41.4,-0.2,30.16,NE,45,5.0,11.0,17,0.00,,,0.00,meteohub,2013-11-05 19:42:00,
2013-11-05 11:47:00,41.9,0.3,30.16,SSE,158,6.0,11.0,17,0.00,,,0.00,meteohub,2013-11-05 19:47:00,
2013-11-05 11:52:00,42.3,-2.2,30.16,ESE,113,4.0,11.0,15,0.00,,,0.00,meteohub,2013-11-05 19:52:00,
2013-11-05 11:57:00,42.8,-1.7,30.16,SE,135,8.0,12.0,15,0.00,,,0.00,meteohub,2013-11-05 19:57:00,
2013-11-05 12:02:00,43.3,-2.7,30.16,SE,135,6.0,12.0,14,0.00,,,0.00,meteohub,2013-11-05 20:02:00,
2013-11-05 12:07:00,43.7,-4.0,30.16,South,180,6.0,12.0,13,0.00,,,0.00,meteohub,2013-11-05 20:07:00,
2013-11-05 12:12:00,44.1,-3.6,30.16,SSE,158,6.0,10.0,13,0.00,,,0.00,meteohub,2013-11-05 20:12:00,
2013-11-05 12:17:00,44.6,-4.9,30.15,South,180,6.0,9.0,12,0.00,,,0.00,meteohub,2013-11-05 20:17:00,
2013-11-05 12:22:00,44.8,-4.7,30.15,SE,135,6.0,10.0,12,0.00,,,0.00,meteohub,2013-11-05 20:22:00,
2013-11-05 12:27:00,45.5,-4.2,30.15,SE,135,2.0,10.0,12,0.00,,,0.00,meteohub,2013-11-05 20:27:00,
2013-11-05 12:32:00,46.4,-3.5,30.15,East,90,5.0,10.0,12,0.00,,,0.00,meteohub,2013-11-05 20:32:00,
2013-11-05 12:37:00,46.6,-5.1,30.15,East,90,4.0,8.0,11,0.00,,,0.00,meteohub,2013-11-05 20:37:00,
2013-11-05 12:42:00,46.4,-3.5,30.14,East,90,4.0,13.0,12,0.00,,,0.00,meteohub,2013-11-05 20:42:00,
2013-11-05 12:47:00,46.8,-7.1,30.14,East,90,7.0,13.0,10,0.00,,,0.00,meteohub,2013-11-05 20:47:00,
2013-11-05 12:52:00,46.8,-7.1,30.14,SE,135,8.0,13.0,10,0.00,,,0.00,meteohub,2013-11-05 20:52:00,
2013-11-05 12:57:00,46.9,-4.9,30.14,SE,135,5.0,11.0,11,0.00,,,0.00,meteohub,2013-11-05 20:57:00,
2013-11-05 13:02:00,47.5,-6.5,30.15,East,90,4.0,10.0,10,0.00,,,0.00,meteohub,2013-11-05 21:02:00,
2013-11-05 13:07:00,47.7,-6.3,30.15,East,90,8.0,9.0,10,0.00,,,0.00,meteohub,2013-11-05 21:07:00,
2013-11-05 14:07:00,46.0,-7.6,30.16,NE,45,4.0,8.0,10,0.00,,,0.00,meteohub,2013-11-05 22:07:00,
2013-11-05 14:12:00,45.7,-7.8,30.16,West,270,4.0,8.0,10,0.00,,,0.00,meteohub,2013-11-05 22:12:00,
2013-11-05 14:17:00,45.1,-8.3,30.16,East,90,8.0,8.0,10,0.00,,,0.00,meteohub,2013-11-05 22:17:00,
2013-11-05 16:25:00,43.0,-9.9,30.18,East,90,6.0,8.0,10,0.00,,,0.00,meteohub,2013-11-06 00:25:00,
2013-11-05 16:31:00,42.4,-10.3,30.18,SE,135,2.0,8.0,10,0.00,,,0.00,meteohub,2013-11-06 00:31:00,
2013-11-05 16:36:00,42.3,-10.5,30.17,SE,135,5.0,8.0,10,0.00,,,0.00,meteohub,2013-11-06 00:36:00,
2013-11-05 16:41:00,41.7,-4.0,30.17,SE,135,2.0,8.0,14,0.00,,,0.00,meteohub,2013-11-06 00:41:00,
2013-11-05 16:46:00,39.4,-3.1,30.18,SE,135,2.0,8.0,16,0.00,,,0.00,meteohub,2013-11-06 00:46:00,
2013-11-05 16:51:00,37.6,-3.3,30.18,SE,135,2.0,5.0,17,0.00,,,0.00,meteohub,2013-11-06 00:51:00,
2013-11-05 16:56:00,36.3,-3.1,30.18,SE,135,1.0,2.0,18,0.00,,,0.00,meteohub,2013-11-06 00:56:00,
2013-11-05 17:01:00,35.4,-1.7,30.18,SE,135,0.0,2.0,20,0.00,,,0.00,meteohub,2013-11-06 01:01:00,
2013-11-05 17:06:00,34.5,-0.4,30.18,SE,135,2.0,2.0,22,0.00,,,0.00,meteohub,2013-11-06 01:06:00,
2013-11-05 17:12:00,34.0,0.1,30.18,SE,135,2.0,2.0,23,0.00,,,0.00,meteohub,2013-11-06 01:12:00,
2013-11-05 17:17:00,33.6,-1.1,30.19,SE,135,2.0,2.0,22,0.00,,,0.00,meteohub,2013-11-06 01:17:00,
2013-11-05 17:22:00,33.3,-0.6,30.19,SE,135,1.0,2.0,23,0.00,,,0.00,meteohub,2013-11-06 01:22:00,
2013-11-05 17:27:00,32.7,0.7,30.19,SE,135,2.0,2.0,25,0.00,,,0.00,meteohub,2013-11-06 01:27:00,
2013-11-05 17:32:00,32.2,0.3,30.20,SE,135,2.0,3.0,25,0.00,,,0.00,meteohub,2013-11-06 01:32:00,
2013-11-05 17:37:00,31.6,-0.2,30.19,SE,135,1.0,3.0,25,0.00,,,0.00,meteohub,2013-11-06 01:37:00,
2013-11-05 17:42:00,31.3,-0.4,30.20,SE,135,2.0,3.0,25,0.00,,,0.00,meteohub,2013-11-06 01:42:00,
2013-11-05 17:47:00,31.1,-1.5,30.19,SE,135,1.0,2.0,24,0.00,,,0.00,meteohub,2013-11-06 01:47:00,
2013-11-05 17:52:00,30.9,-2.6,30.19,SE,135,1.0,2.0,23,0.00,,,0.00,meteohub,2013-11-06 01:52:00,
2013-11-05 17:57:00,30.7,-3.6,30.19,SE,135,1.0,2.0,22,0.00,,,0.00,meteohub,2013-11-06 01:57:00,
2013-11-05 18:02:00,30.6,-2.9,30.20,SE,135,1.0,2.0,23,0.00,,,0.00,meteohub,2013-11-06 02:02:00,
2013-11-05 18:07:00,30.4,-2.9,30.20,SE,135,1.0,2.0,23,0.00,,,0.00,meteohub,2013-11-06 02:07:00,
2013-11-05 18:11:00,30.2,-2.2,30.20,SE,135,1.0,2.0,24,0.00,,,0.00,meteohub,2013-11-06 02:11:00,
2013-11-05 18:16:00,29.8,-2.6,30.20,SE,135,2.0,2.0,24,0.00,,,0.00,meteohub,2013-11-06 02:16:00,
2013-11-05 18:21:00,29.7,-2.7,30.20,SE,135,1.0,2.0,24,0.00,,,0.00,meteohub,2013-11-06 02:21:00,
2013-11-05 18:26:00,29.5,-2.9,30.21,SE,135,1.0,2.0,24,0.00,,,0.00,meteohub,2013-11-06 02:26:00,
2013-11-05 18:31:00,29.3,-3.1,30.22,SE,135,1.0,2.0,24,0.00,,,0.00,meteohub,2013-11-06 02:31:00,
2013-11-05 18:36:00,29.1,-4.0,30.21,SE,135,1.0,2.0,23,0.00,,,0.00,meteohub,2013-11-06 02:36:00,
2013-11-05 18:42:00,29.1,-3.3,30.21,SE,135,2.0,2.0,24,0.00,,,0.00,meteohub,2013-11-06 02:42:00,
2013-11-05 18:47:00,28.9,-3.3,30.21,SE,135,2.0,2.0,24,0.00,,,0.00,meteohub,2013-11-06 02:47:00,
2013-11-05 18:52:00,28.8,-3.5,30.22,SE,135,1.0,2.0,24,0.00,,,0.00,meteohub,2013-11-06 02:52:00,
2013-11-05 18:57:00,29.1,-2.4,30.21,SE,135,1.0,3.0,25,0.00,,,0.00,meteohub,2013-11-06 02:57:00,
2013-11-05 19:02:00,28.6,-2.0,30.21,SE,135,3.0,3.0,26,0.00,,,0.00,meteohub,2013-11-06 03:02:00,
2013-11-05 19:07:00,28.6,-2.7,30.21,SE,135,3.0,3.0,25,0.00,,,0.00,meteohub,2013-11-06 03:07:00,
2013-11-05 19:12:00,28.6,-2.7,30.21,SE,135,1.0,3.0,25,0.00,,,0.00,meteohub,2013-11-06 03:12:00,
2013-11-05 19:17:00,28.6,-2.0,30.21,SE,135,1.0,3.0,26,0.00,,,0.00,meteohub,2013-11-06 03:17:00,
2013-11-05 19:22:00,28.6,-2.0,30.21,SE,135,1.0,3.0,26,0.00,,,0.00,meteohub,2013-11-06 03:22:00,
2013-11-05 19:27:00,28.4,-2.2,30.21,SE,135,1.0,2.0,26,0.00,,,0.00,meteohub,2013-11-06 03:27:00,
2013-11-05 19:32:00,28.2,-2.2,30.21,SE,135,2.0,2.0,26,0.00,,,0.00,meteohub,2013-11-06 03:32:00,
2013-11-05 19:37:00,28.2,-2.2,30.22,SE,135,1.0,4.0,26,0.00,,,0.00,meteohub,2013-11-06 03:37:00,
2013-11-05 19:42:00,28.0,-1.7,30.22,SE,135,0.0,4.0,27,0.00,,,0.00,meteohub,2013-11-06 03:42:00,
2013-11-05 19:47:00,27.9,-1.1,30.21,SE,135,4.0,4.0,28,0.00,,,0.00,meteohub,2013-11-06 03:47:00,
2013-11-05 19:52:00,27.9,-1.1,30.21,SE,135,1.0,4.0,28,0.00,,,0.00,meteohub,2013-11-06 03:52:00,
2013-11-05 19:57:00,27.9,-1.1,30.22,SE,135,1.0,4.0,28,0.00,,,0.00,meteohub,2013-11-06 03:57:00,
2013-11-05 20:02:00,27.9,-1.1,30.22,SE,135,0.0,4.0,28,0.00,,,0.00,meteohub,2013-11-06 04:02:00,
2013-11-05 20:07:00,28.0,-0.9,30.22,SE,135,1.0,2.0,28,0.00,,,0.00,meteohub,2013-11-06 04:07:00,
2013-11-05 20:12:00,28.0,-0.2,30.22,SE,135,3.0,3.0,29,0.00,,,0.00,meteohub,2013-11-06 04:12:00,
2013-11-05 20:17:00,27.9,-0.2,30.22,SE,135,2.0,3.0,29,0.00,,,0.00,meteohub,2013-11-06 04:17:00,
2013-11-05 20:22:00,28.0,-0.2,30.22,SE,135,2.0,3.0,29,0.00,,,0.00,meteohub,2013-11-06 04:22:00,
2013-11-05 20:27:00,28.0,0.7,30.23,SE,135,1.0,3.0,30,0.00,,,0.00,meteohub,2013-11-06 04:27:00,
2013-11-05 20:32:00,28.0,0.7,30.23,SE,135,1.0,3.0,30,0.00,,,0.00,meteohub,2013-11-06 04:32:00,
2013-11-05 20:37:00,28.2,0.7,30.23,SE,135,2.0,2.0,30,0.00,,,0.00,meteohub,2013-11-06 04:37:00,
2013-11-05 20:42:00,28.4,0.1,30.23,South,180,1.0,4.0,29,0.00,,,0.00,meteohub,2013-11-06 04:42:00,
2013-11-05 20:47:00,28.6,0.3,30.23,SE,135,3.0,4.0,29,0.00,,,0.00,meteohub,2013-11-06 04:47:00,
2013-11-05 20:52:00,28.6,0.3,30.23,SE,135,2.0,4.0,29,0.00,,,0.00,meteohub,2013-11-06 04:52:00,
2013-11-05 20:57:00,28.6,0.3,30.23,SE,135,2.0,4.0,29,0.00,,,0.00,meteohub,2013-11-06 04:57:00,
2013-11-05 21:01:00,28.6,0.3,30.24,SE,135,1.0,4.0,29,0.00,,,0.00,meteohub,2013-11-06 05:01:00,
2013-11-05 21:02:00,28.6,0.3,30.24,SE,135,4.0,4.0,29,0.00,,,0.00,meteohub,2013-11-06 05:02:00,
2013-11-05 21:07:00,29.1,0.1,30.24,SE,135,2.0,4.0,28,0.00,,,0.00,meteohub,2013-11-06 05:07:00,
2013-11-05 21:12:00,29.1,0.1,30.24,SE,135,2.0,4.0,28,0.00,,,0.00,meteohub,2013-11-06 05:12:00,
2013-11-05 21:18:00,28.9,-0.9,30.24,SE,135,4.0,4.0,27,0.00,,,0.00,meteohub,2013-11-06 05:18:00,
2013-11-05 21:23:00,29.3,-1.3,30.23,South,180,2.0,4.0,26,0.00,,,0.00,meteohub,2013-11-06 05:23:00,
2013-11-05 21:28:00,29.5,-1.1,30.24,South,180,2.0,5.0,26,0.00,,,0.00,meteohub,2013-11-06 05:28:00,
2013-11-05 21:33:00,29.5,-2.0,30.24,SE,135,4.0,5.0,25,0.00,,,0.00,meteohub,2013-11-06 05:33:00,
2013-11-05 21:38:00,29.5,-2.0,30.23,SE,135,2.0,4.0,25,0.00,,,0.00,meteohub,2013-11-06 05:38:00,
2013-11-05 21:43:00,29.3,-2.2,30.24,SE,135,1.0,4.0,25,0.00,,,0.00,meteohub,2013-11-06 05:43:00,
2013-11-05 21:48:00,29.1,-1.5,30.23,SE,135,1.0,4.0,26,0.00,,,0.00,meteohub,2013-11-06 05:48:00,
2013-11-05 21:53:00,28.8,-1.8,30.23,SE,135,2.0,4.0,26,0.00,,,0.00,meteohub,2013-11-06 05:53:00,
2013-11-05 21:58:00,28.6,-1.1,30.23,SE,135,1.0,3.0,27,0.00,,,0.00,meteohub,2013-11-06 05:58:00,
2013-11-05 22:03:00,28.4,-1.3,30.24,SE,135,1.0,3.0,27,0.00,,,0.00,meteohub,2013-11-06 06:03:00,
2013-11-05 22:08:00,28.2,-1.5,30.24,SE,135,2.0,3.0,27,0.00,,,0.00,meteohub,2013-11-06 06:08:00,
2013-11-05 22:13:00,28.2,-0.8,30.24,SE,135,3.0,3.0,28,0.00,,,0.00,meteohub,2013-11-06 06:13:00,
2013-11-05 22:18:00,28.0,-0.9,30.24,SE,135,1.0,3.0,28,0.00,,,0.00,meteohub,2013-11-06 06:18:00,
2013-11-05 22:23:00,28.2,0.0,30.24,SE,135,2.0,3.0,29,0.00,,,0.00,meteohub,2013-11-06 06:23:00,
2013-11-05 22:28:00,28.0,0.7,30.24,SE,135,2.0,3.0,30,0.00,,,0.00,meteohub,2013-11-06 06:28:00,
2013-11-05 22:33:00,27.9,0.5,30.24,SE,135,3.0,3.0,30,0.00,,,0.00,meteohub,2013-11-06 06:33:00,
2013-11-05 22:38:00,27.9,0.5,30.24,SE,135,2.0,3.0,30,0.00,,,0.00,meteohub,2013-11-06 06:38:00,
2013-11-05 22:43:00,27.7,1.0,30.24,SE,135,2.0,3.0,31,0.00,,,0.00,meteohub,2013-11-06 06:43:00,
2013-11-05 22:48:00,27.7,1.6,30.24,SE,135,2.0,3.0,32,0.00,,,0.00,meteohub,2013-11-06 06:48:00,
2013-11-05 22:53:00,27.5,1.6,30.24,SE,135,2.0,2.0,32,0.00,,,0.00,meteohub,2013-11-06 06:53:00,
2013-11-05 22:58:00,27.5,1.6,30.24,SE,135,1.0,3.0,32,0.00,,,0.00,meteohub,2013-11-06 06:58:00,
2013-11-05 23:03:00,27.5,2.1,30.24,SE,135,1.0,3.0,33,0.00,,,0.00,meteohub,2013-11-06 07:03:00,
2013-11-05 23:08:00,27.5,2.1,30.24,SE,135,2.0,3.0,33,0.00,,,0.00,meteohub,2013-11-06 07:08:00,
2013-11-05 23:13:00,27.7,2.3,30.24,SE,135,0.0,3.0,33,0.00,,,0.00,meteohub,2013-11-06 07:13:00,
2013-11-05 23:18:00,27.7,2.3,30.24,SE,135,1.0,3.0,33,0.00,,,0.00,meteohub,2013-11-06 07:18:00,
2013-11-05 23:23:00,27.7,2.3,30.23,SE,135,1.0,3.0,33,0.00,,,0.00,meteohub,2013-11-06 07:23:00,
2013-11-05 23:28:00,27.5,2.8,30.23,SE,135,2.0,2.0,34,0.00,,,0.00,meteohub,2013-11-06 07:28:00,
2013-11-05 23:33:00,27.3,3.2,30.24,SE,135,3.0,3.0,35,0.00,,,0.00,meteohub,2013-11-06 07:33:00,
2013-11-05 23:38:00,27.0,3.0,30.24,SE,135,1.0,3.0,35,0.00,,,0.00,meteohub,2013-11-06 07:38:00,
2013-11-05 23:43:00,27.0,3.0,30.24,SE,135,2.0,3.0,35,0.00,,,0.00,meteohub,2013-11-06 07:43:00,
2013-11-05 23:49:00,27.0,3.0,30.24,SE,135,1.0,3.0,35,0.00,,,0.00,meteohub,2013-11-06 07:49:00,
2013-11-05 23:54:00,27.1,3.0,30.24,SE,135,1.0,2.0,35,0.00,,,0.00,meteohub,2013-11-06 07:54:00,
2013-11-05 23:59:00,27.1,3.0,30.24,SE,135,2.0,2.0,35,0.00,,,0.00,meteohub,2013-11-06 07:59:00,